sensor_id;sensor_type;location;lat;lon;timestamp;pressure;altitude;pressure_sealevel;temperature;humidity
50702;BME280;36670;50.094;8.496;2023-08-17T00:00:11;100500.53;;;23.69;66.71
50702;BME280;36670;50.094;8.496;2023-08-17T00:02:40;100497.22;;;23.67;66.31
50702;BME280;36670;50.094;8.496;2023-08-17T00:05:05;100496.78;;;23.95;65.78
50702;BME280;36670;50.094;8.496;2023-08-17T00:07:37;100500.25;;;23.44;66.80
50702;BME280;36670;50.094;8.496;2023-08-17T00:10:03;100500.72;;;23.64;66.43
50702;BME280;36670;50.094;8.496;2023-08-17T00:12:29;100493.91;;;23.65;65.83
50702;BME280;36670;50.094;8.496;2023-08-17T00:14:54;100493.94;;;23.47;66.70
50702;BME280;36670;50.094;8.496;2023-08-17T00:17:26;100474.28;;;23.30;67.28
50702;BME280;36670;50.094;8.496;2023-08-17T00:19:51;100472.75;;;23.32;67.17
50702;BME280;36670;50.094;8.496;2023-08-17T00:22:16;100482.69;;;23.47;66.68
50702;BME280;36670;50.094;8.496;2023-08-17T00:24:42;100479.94;;;23.77;66.42
50702;BME280;36670;50.094;8.496;2023-08-17T00:27:10;100497.84;;;23.81;65.83
50702;BME280;36670;50.094;8.496;2023-08-17T00:29:36;100493.22;;;24.15;64.82
50702;BME280;36670;50.094;8.496;2023-08-17T00:32:02;100498.31;;;23.83;65.13
50702;BME280;36670;50.094;8.496;2023-08-17T00:34:28;100499.00;;;24.19;64.37
50702;BME280;36670;50.094;8.496;2023-08-17T00:36:53;100494.63;;;24.30;64.37
50702;BME280;36670;50.094;8.496;2023-08-17T00:39:19;100488.56;;;24.19;64.95
50702;BME280;36670;50.094;8.496;2023-08-17T00:41:45;100488.44;;;24.07;64.61
50702;BME280;36670;50.094;8.496;2023-08-17T00:44:10;100490.28;;;24.03;64.13
50702;BME280;36670;50.094;8.496;2023-08-17T00:46:39;100489.38;;;23.90;65.13
50702;BME280;36670;50.094;8.496;2023-08-17T00:49:06;100484.75;;;24.15;64.03
50702;BME280;36670;50.094;8.496;2023-08-17T00:51:32;100483.63;;;24.08;64.53
50702;BME280;36670;50.094;8.496;2023-08-17T00:53:59;100487.03;;;24.22;64.03
50702;BME280;36670;50.094;8.496;2023-08-17T00:56:26;100486.16;;;24.00;63.58
50702;BME280;36670;50.094;8.496;2023-08-17T00:58:52;100483.22;;;23.88;64.62
50702;BME280;36670;50.094;8.496;2023-08-17T01:01:19;100483.88;;;23.11;65.48
50702;BME280;36670;50.094;8.496;2023-08-17T01:03:45;100486.06;;;23.14;65.96
50702;BME280;36670;50.094;8.496;2023-08-17T01:06:11;100484.06;;;23.24;65.90
50702;BME280;36670;50.094;8.496;2023-08-17T01:08:43;100481.25;;;23.24;66.22
50702;BME280;36670;50.094;8.496;2023-08-17T01:14:36;100475.75;;;23.92;64.32
50702;BME280;36670;50.094;8.496;2023-08-17T01:16:50;100478.56;;;23.83;63.98
50702;BME280;36670;50.094;8.496;2023-08-17T01:19:24;100478.97;;;23.73;64.44
50702;BME280;36670;50.094;8.496;2023-08-17T01:21:51;100480.91;;;23.81;63.83
50702;BME280;36670;50.094;8.496;2023-08-17T01:24:19;100480.41;;;23.79;63.91
50702;BME280;36670;50.094;8.496;2023-08-17T01:26:44;100472.91;;;23.54;64.34
50702;BME280;36670;50.094;8.496;2023-08-17T01:29:10;100461.25;;;23.64;64.37
50702;BME280;36670;50.094;8.496;2023-08-17T01:32:03;100453.78;;;23.68;64.28
50702;BME280;36670;50.094;8.496;2023-08-17T01:34:36;100456.31;;;23.52;64.32
50702;BME280;36670;50.094;8.496;2023-08-17T01:37:04;100455.44;;;23.69;64.19
50702;BME280;36670;50.094;8.496;2023-08-17T01:39:37;100447.63;;;23.75;64.06
50702;BME280;36670;50.094;8.496;2023-08-17T01:42:03;100453.25;;;23.75;63.97
50702;BME280;36670;50.094;8.496;2023-08-17T01:44:30;100456.19;;;23.87;63.21
50702;BME280;36670;50.094;8.496;2023-08-17T01:46:55;100447.75;;;23.78;64.05
50702;BME280;36670;50.094;8.496;2023-08-17T01:49:21;100445.06;;;23.91;63.07
50702;BME280;36670;50.094;8.496;2023-08-17T01:51:46;100443.22;;;23.95;62.73
50702;BME280;36670;50.094;8.496;2023-08-17T01:54:11;100446.00;;;23.65;63.87
50702;BME280;36670;50.094;8.496;2023-08-17T01:56:37;100450.28;;;23.71;63.55
50702;BME280;36670;50.094;8.496;2023-08-17T01:59:02;100448.59;;;23.79;63.66
50702;BME280;36670;50.094;8.496;2023-08-17T02:01:27;100448.00;;;24.03;63.09
50702;BME280;36670;50.094;8.496;2023-08-17T02:03:53;100442.06;;;23.96;63.14
50702;BME280;36670;50.094;8.496;2023-08-17T02:06:18;100441.88;;;24.01;62.77
50702;BME280;36670;50.094;8.496;2023-08-17T02:08:44;100446.94;;;24.16;62.34
50702;BME280;36670;50.094;8.496;2023-08-17T02:11:09;100446.03;;;23.95;62.94
50702;BME280;36670;50.094;8.496;2023-08-17T02:13:35;100444.72;;;23.92;62.91
50702;BME280;36670;50.094;8.496;2023-08-17T02:16:02;100440.78;;;23.84;63.12
50702;BME280;36670;50.094;8.496;2023-08-17T02:18:27;100440.91;;;23.97;62.73
50702;BME280;36670;50.094;8.496;2023-08-17T02:20:56;100438.84;;;24.06;62.57
50702;BME280;36670;50.094;8.496;2023-08-17T02:23:21;100437.34;;;23.70;63.29
50702;BME280;36670;50.094;8.496;2023-08-17T02:25:46;100429.91;;;23.65;62.74
50702;BME280;36670;50.094;8.496;2023-08-17T02:28:11;100426.50;;;23.51;63.51
50702;BME280;36670;50.094;8.496;2023-08-17T02:30:37;100427.34;;;23.81;62.66
50702;BME280;36670;50.094;8.496;2023-08-17T02:33:03;100425.84;;;23.93;62.53
50702;BME280;36670;50.094;8.496;2023-08-17T02:35:28;100422.66;;;23.94;62.79
50702;BME280;36670;50.094;8.496;2023-08-17T02:37:53;100421.69;;;23.90;62.56
50702;BME280;36670;50.094;8.496;2023-08-17T02:40:19;100415.72;;;23.92;62.86
50702;BME280;36670;50.094;8.496;2023-08-17T02:42:44;100423.69;;;23.81;62.51
50702;BME280;36670;50.094;8.496;2023-08-17T02:45:09;100414.94;;;23.74;63.09
50702;BME280;36670;50.094;8.496;2023-08-17T02:47:35;100420.53;;;23.82;62.73
50702;BME280;36670;50.094;8.496;2023-08-17T02:50:00;100410.75;;;23.80;63.05
50702;BME280;36670;50.094;8.496;2023-08-17T02:52:26;100414.91;;;23.91;62.37
50702;BME280;36670;50.094;8.496;2023-08-17T02:54:51;100420.03;;;23.89;62.27
50702;BME280;36670;50.094;8.496;2023-08-17T02:57:16;100410.78;;;23.41;63.47
50702;BME280;36670;50.094;8.496;2023-08-17T02:59:43;100422.47;;;23.13;63.71
50702;BME280;36670;50.094;8.496;2023-08-17T03:02:08;100411.63;;;23.33;63.19
50702;BME280;36670;50.094;8.496;2023-08-17T03:04:34;100418.13;;;23.07;64.04
50702;BME280;36670;50.094;8.496;2023-08-17T03:06:59;100413.19;;;22.87;65.26
50702;BME280;36670;50.094;8.496;2023-08-17T03:09:25;100425.09;;;23.18;64.04
50702;BME280;36670;50.094;8.496;2023-08-17T03:11:50;100418.34;;;22.49;65.57
50702;BME280;36670;50.094;8.496;2023-08-17T03:14:15;100418.97;;;22.20;67.23
50702;BME280;36670;50.094;8.496;2023-08-17T03:16:41;100422.72;;;21.98;67.39
50702;BME280;36670;50.094;8.496;2023-08-17T03:19:06;100415.16;;;22.16;66.96
50702;BME280;36670;50.094;8.496;2023-08-17T03:21:33;100411.56;;;22.42;66.55
50702;BME280;36670;50.094;8.496;2023-08-17T03:23:59;100412.56;;;22.72;65.17
50702;BME280;36670;50.094;8.496;2023-08-17T03:26:24;100417.50;;;22.49;66.52
50702;BME280;36670;50.094;8.496;2023-08-17T03:28:49;100417.78;;;22.21;67.00
50702;BME280;36670;50.094;8.496;2023-08-17T03:31:15;100413.81;;;22.05;67.25
50702;BME280;36670;50.094;8.496;2023-08-17T03:33:40;100419.00;;;22.38;66.74
50702;BME280;36670;50.094;8.496;2023-08-17T03:36:06;100422.19;;;21.78;67.74
50702;BME280;36670;50.094;8.496;2023-08-17T03:38:31;100417.09;;;21.98;67.59
50702;BME280;36670;50.094;8.496;2023-08-17T03:40:56;100420.63;;;21.63;68.75
50702;BME280;36670;50.094;8.496;2023-08-17T03:43:22;100421.84;;;21.48;68.58
50702;BME280;36670;50.094;8.496;2023-08-17T03:45:47;100423.41;;;21.55;68.41
50702;BME280;36670;50.094;8.496;2023-08-17T03:48:12;100426.69;;;22.06;67.11
50702;BME280;36670;50.094;8.496;2023-08-17T03:50:38;100421.44;;;22.30;66.37
50702;BME280;36670;50.094;8.496;2023-08-17T03:53:04;100426.41;;;22.16;66.59
50702;BME280;36670;50.094;8.496;2023-08-17T03:55:29;100432.25;;;22.37;66.56
50702;BME280;36670;50.094;8.496;2023-08-17T03:57:55;100431.09;;;22.47;65.95
50702;BME280;36670;50.094;8.496;2023-08-17T04:00:20;100442.94;;;22.17;66.47
50702;BME280;36670;50.094;8.496;2023-08-17T04:02:45;100430.59;;;22.45;65.68
50702;BME280;36670;50.094;8.496;2023-08-17T04:05:11;100431.38;;;22.28;66.08
50702;BME280;36670;50.094;8.496;2023-08-17T04:07:36;100432.50;;;22.18;66.23
50702;BME280;36670;50.094;8.496;2023-08-17T04:10:03;100445.34;;;21.84;66.84
50702;BME280;36670;50.094;8.496;2023-08-17T04:12:28;100450.41;;;21.73;67.74
50702;BME280;36670;50.094;8.496;2023-08-17T04:14:53;100455.22;;;21.73;67.44
50702;BME280;36670;50.094;8.496;2023-08-17T04:17:18;100457.06;;;21.86;67.02
50702;BME280;36670;50.094;8.496;2023-08-17T04:19:46;100450.72;;;22.21;65.83
50702;BME280;36670;50.094;8.496;2023-08-17T04:22:11;100457.41;;;21.93;67.06
50702;BME280;36670;50.094;8.496;2023-08-17T04:24:36;100468.22;;;21.37;68.41
50702;BME280;36670;50.094;8.496;2023-08-17T04:27:02;100460.97;;;21.68;67.38
50702;BME280;36670;50.094;8.496;2023-08-17T04:29:27;100472.22;;;21.68;67.65
50702;BME280;36670;50.094;8.496;2023-08-17T04:31:53;100467.78;;;21.75;67.56
50702;BME280;36670;50.094;8.496;2023-08-17T04:34:18;100465.44;;;21.69;68.10
50702;BME280;36670;50.094;8.496;2023-08-17T04:36:43;100468.41;;;21.72;67.38
50702;BME280;36670;50.094;8.496;2023-08-17T04:39:09;100472.41;;;22.29;66.15
50702;BME280;36670;50.094;8.496;2023-08-17T04:41:34;100478.19;;;22.24;66.39
50702;BME280;36670;50.094;8.496;2023-08-17T04:44:00;100468.63;;;22.33;65.74
50702;BME280;36670;50.094;8.496;2023-08-17T04:46:25;100468.47;;;22.47;66.10
50702;BME280;36670;50.094;8.496;2023-08-17T04:48:53;100466.03;;;22.55;65.48
50702;BME280;36670;50.094;8.496;2023-08-17T04:51:19;100463.38;;;22.49;65.64
50702;BME280;36670;50.094;8.496;2023-08-17T04:53:44;100470.00;;;22.89;64.72
50702;BME280;36670;50.094;8.496;2023-08-17T04:56:09;100467.47;;;23.31;64.22
50702;BME280;36670;50.094;8.496;2023-08-17T04:58:34;100466.81;;;23.25;64.68
50702;BME280;36670;50.094;8.496;2023-08-17T05:01:00;100473.94;;;23.23;63.96
50702;BME280;36670;50.094;8.496;2023-08-17T05:03:25;100479.25;;;22.89;64.65
50702;BME280;36670;50.094;8.496;2023-08-17T05:05:52;100469.50;;;23.22;63.94
50702;BME280;36670;50.094;8.496;2023-08-17T05:08:17;100473.13;;;23.22;64.45
50702;BME280;36670;50.094;8.496;2023-08-17T05:10:42;100474.25;;;23.39;63.71
50702;BME280;36670;50.094;8.496;2023-08-17T05:13:08;100468.16;;;23.28;63.75
50702;BME280;36670;50.094;8.496;2023-08-17T05:15:33;100483.09;;;22.76;64.75
50702;BME280;36670;50.094;8.496;2023-08-17T05:17:58;100485.47;;;22.25;66.04
50702;BME280;36670;50.094;8.496;2023-08-17T05:20:23;100475.91;;;22.35;65.71
50702;BME280;36670;50.094;8.496;2023-08-17T05:22:49;100472.00;;;22.88;65.40
50702;BME280;36670;50.094;8.496;2023-08-17T05:25:14;100471.81;;;22.84;65.70
50702;BME280;36670;50.094;8.496;2023-08-17T05:27:39;100465.31;;;23.10;64.86
50702;BME280;36670;50.094;8.496;2023-08-17T05:30:05;100454.78;;;23.63;64.54
50702;BME280;36670;50.094;8.496;2023-08-17T05:32:31;100462.88;;;23.74;63.79
50702;BME280;36670;50.094;8.496;2023-08-17T05:34:56;100462.06;;;23.73;63.06
50702;BME280;36670;50.094;8.496;2023-08-17T05:37:21;100470.50;;;24.12;63.39
50702;BME280;36670;50.094;8.496;2023-08-17T05:39:47;100468.03;;;25.37;61.65
50702;BME280;36670;50.094;8.496;2023-08-17T05:42:12;100472.59;;;26.12;58.51
50702;BME280;36670;50.094;8.496;2023-08-17T05:44:37;100467.41;;;26.92;59.12
50702;BME280;36670;50.094;8.496;2023-08-17T05:47:03;100469.34;;;28.44;53.73
50702;BME280;36670;50.094;8.496;2023-08-17T05:49:28;100472.69;;;28.66;51.62
50702;BME280;36670;50.094;8.496;2023-08-17T05:51:53;100475.22;;;29.10;52.40
50702;BME280;36670;50.094;8.496;2023-08-17T05:54:19;100469.47;;;29.45;52.08
50702;BME280;36670;50.094;8.496;2023-08-17T05:56:44;100463.41;;;29.70;48.28
50702;BME280;36670;50.094;8.496;2023-08-17T05:59:11;100478.75;;;29.66;50.96
50702;BME280;36670;50.094;8.496;2023-08-17T06:01:36;100473.81;;;29.20;49.84
50702;BME280;36670;50.094;8.496;2023-08-17T06:04:03;100480.22;;;29.79;48.92
50702;BME280;36670;50.094;8.496;2023-08-17T06:06:28;100480.97;;;30.79;48.69
50702;BME280;36670;50.094;8.496;2023-08-17T06:08:54;100474.84;;;32.39;47.09
50702;BME280;36670;50.094;8.496;2023-08-17T06:11:19;100472.72;;;32.88;45.32
50702;BME280;36670;50.094;8.496;2023-08-17T06:13:45;100478.19;;;33.25;45.22
50702;BME280;36670;50.094;8.496;2023-08-17T06:16:10;100482.31;;;33.53;44.09
50702;BME280;36670;50.094;8.496;2023-08-17T06:18:36;100481.13;;;34.12;42.33
50702;BME280;36670;50.094;8.496;2023-08-17T06:21:01;100475.41;;;34.01;42.20
50702;BME280;36670;50.094;8.496;2023-08-17T06:23:27;100469.25;;;34.35;41.69
50702;BME280;36670;50.094;8.496;2023-08-17T06:25:56;100475.31;;;33.32;42.34
50702;BME280;36670;50.094;8.496;2023-08-17T06:28:22;100476.63;;;34.14;41.53
50702;BME280;36670;50.094;8.496;2023-08-17T06:30:51;100479.88;;;34.52;41.29
50702;BME280;36670;50.094;8.496;2023-08-17T06:33:17;100478.25;;;34.44;39.13
50702;BME280;36670;50.094;8.496;2023-08-17T06:35:42;100480.28;;;33.54;39.99
50702;BME280;36670;50.094;8.496;2023-08-17T06:38:07;100488.50;;;33.91;40.77
50702;BME280;36670;50.094;8.496;2023-08-17T06:40:33;100482.56;;;33.05;40.13
50702;BME280;36670;50.094;8.496;2023-08-17T06:42:58;100481.00;;;32.44;42.44
50702;BME280;36670;50.094;8.496;2023-08-17T06:45:23;100496.72;;;31.68;42.23
50702;BME280;36670;50.094;8.496;2023-08-17T06:47:49;100502.69;;;29.84;44.67
50702;BME280;36670;50.094;8.496;2023-08-17T06:50:14;100508.72;;;28.61;47.59
50702;BME280;36670;50.094;8.496;2023-08-17T06:52:40;100514.59;;;27.00;49.82
50702;BME280;36670;50.094;8.496;2023-08-17T06:55:06;100505.75;;;26.24;53.58
50702;BME280;36670;50.094;8.496;2023-08-17T06:57:31;100509.81;;;25.89;53.46
50702;BME280;36670;50.094;8.496;2023-08-17T06:59:57;100517.19;;;25.24;56.28
50702;BME280;36670;50.094;8.496;2023-08-17T07:02:22;100505.38;;;25.43;55.31
50702;BME280;36670;50.094;8.496;2023-08-17T07:04:47;100511.53;;;25.24;57.15
50702;BME280;36670;50.094;8.496;2023-08-17T07:07:12;100505.75;;;24.27;58.96
50702;BME280;36670;50.094;8.496;2023-08-17T07:09:39;100503.81;;;23.89;60.66
50702;BME280;36670;50.094;8.496;2023-08-17T07:12:04;100494.66;;;23.27;62.51
50702;BME280;36670;50.094;8.496;2023-08-17T07:14:30;100494.66;;;23.35;63.17
50702;BME280;36670;50.094;8.496;2023-08-17T07:16:55;100494.56;;;23.62;62.20
50702;BME280;36670;50.094;8.496;2023-08-17T07:19:22;100493.50;;;23.84;61.73
50702;BME280;36670;50.094;8.496;2023-08-17T07:21:47;100500.88;;;23.59;61.90
50702;BME280;36670;50.094;8.496;2023-08-17T07:24:14;100493.00;;;23.34;63.13
50702;BME280;36670;50.094;8.496;2023-08-17T07:26:39;100503.53;;;23.64;62.58
50702;BME280;36670;50.094;8.496;2023-08-17T07:29:05;100503.38;;;23.51;63.30
50702;BME280;36670;50.094;8.496;2023-08-17T07:31:30;100507.38;;;23.59;62.78
50702;BME280;36670;50.094;8.496;2023-08-17T07:33:56;100506.16;;;23.69;62.55
50702;BME280;36670;50.094;8.496;2023-08-17T07:36:21;100521.69;;;23.93;61.72
50702;BME280;36670;50.094;8.496;2023-08-17T07:38:46;100509.63;;;24.13;62.03
50702;BME280;36670;50.094;8.496;2023-08-17T07:41:12;100513.25;;;24.23;61.61
50702;BME280;36670;50.094;8.496;2023-08-17T07:43:37;100514.22;;;24.27;60.59
50702;BME280;36670;50.094;8.496;2023-08-17T07:46:02;100519.41;;;24.25;61.18
50702;BME280;36670;50.094;8.496;2023-08-17T07:48:27;100514.25;;;23.79;62.28
50702;BME280;36670;50.094;8.496;2023-08-17T07:50:58;100512.06;;;23.94;62.92
50702;BME280;36670;50.094;8.496;2023-08-17T07:53:23;100520.69;;;24.57;62.29
50702;BME280;36670;50.094;8.496;2023-08-17T07:55:49;100517.53;;;25.22;60.63
50702;BME280;36670;50.094;8.496;2023-08-17T07:58:14;100520.84;;;25.03;60.43
50702;BME280;36670;50.094;8.496;2023-08-17T08:00:39;100525.00;;;25.72;59.14
50702;BME280;36670;50.094;8.496;2023-08-17T08:03:05;100525.72;;;25.69;58.05
50702;BME280;36670;50.094;8.496;2023-08-17T08:05:30;100526.88;;;24.80;59.66
50702;BME280;36670;50.094;8.496;2023-08-17T08:07:55;100522.22;;;24.97;59.93
50702;BME280;36670;50.094;8.496;2023-08-17T08:10:20;100522.31;;;24.67;61.26
50702;BME280;36670;50.094;8.496;2023-08-17T08:12:46;100515.50;;;24.89;60.91
50702;BME280;36670;50.094;8.496;2023-08-17T08:15:11;100506.84;;;25.61;59.58
50702;BME280;36670;50.094;8.496;2023-08-17T08:17:36;100509.59;;;25.82;58.25
50702;BME280;36670;50.094;8.496;2023-08-17T08:20:03;100507.72;;;25.99;57.37
50702;BME280;36670;50.094;8.496;2023-08-17T08:22:29;100515.34;;;25.73;57.70
50702;BME280;36670;50.094;8.496;2023-08-17T08:24:54;100521.72;;;25.16;59.89
50702;BME280;36670;50.094;8.496;2023-08-17T08:27:19;100520.41;;;25.68;58.37
50702;BME280;36670;50.094;8.496;2023-08-17T08:29:45;100511.94;;;25.80;58.22
50702;BME280;36670;50.094;8.496;2023-08-17T08:32:10;100526.84;;;25.56;59.36
50702;BME280;36670;50.094;8.496;2023-08-17T08:34:35;100511.94;;;25.68;59.04
50702;BME280;36670;50.094;8.496;2023-08-17T08:37:01;100522.13;;;26.06;57.72
50702;BME280;36670;50.094;8.496;2023-08-17T08:39:26;100512.72;;;26.14;57.64
50702;BME280;36670;50.094;8.496;2023-08-17T08:41:52;100508.66;;;25.78;59.34
50702;BME280;36670;50.094;8.496;2023-08-17T08:44:17;100515.19;;;26.40;58.04
50702;BME280;36670;50.094;8.496;2023-08-17T08:46:44;100516.88;;;27.51;55.88
50702;BME280;36670;50.094;8.496;2023-08-17T08:49:10;100510.22;;;27.03;56.66
50702;BME280;36670;50.094;8.496;2023-08-17T08:51:38;100510.50;;;27.54;55.28
50702;BME280;36670;50.094;8.496;2023-08-17T08:54:07;100512.34;;;26.53;55.50
50702;BME280;36670;50.094;8.496;2023-08-17T08:56:37;100507.72;;;26.73;56.03
50702;BME280;36670;50.094;8.496;2023-08-17T08:59:04;100511.13;;;26.54;56.69
50702;BME280;36670;50.094;8.496;2023-08-17T09:01:33;100520.63;;;26.33;56.54
50702;BME280;36670;50.094;8.496;2023-08-17T09:03:59;100518.72;;;26.37;57.30
50702;BME280;36670;50.094;8.496;2023-08-17T09:06:26;100506.75;;;26.56;56.17
50702;BME280;36670;50.094;8.496;2023-08-17T09:08:52;100505.38;;;26.75;56.58
50702;BME280;36670;50.094;8.496;2023-08-17T09:11:18;100507.25;;;27.40;55.53
50702;BME280;36670;50.094;8.496;2023-08-17T09:13:43;100502.34;;;27.85;55.09
50702;BME280;36670;50.094;8.496;2023-08-17T09:16:08;100496.78;;;28.04;54.19
50702;BME280;36670;50.094;8.496;2023-08-17T09:18:34;100498.38;;;27.13;55.41
50702;BME280;36670;50.094;8.496;2023-08-17T09:21:00;100493.09;;;27.56;55.25
50702;BME280;36670;50.094;8.496;2023-08-17T09:23:26;100498.75;;;27.28;55.24
50702;BME280;36670;50.094;8.496;2023-08-17T09:25:51;100497.88;;;26.83;55.53
50702;BME280;36670;50.094;8.496;2023-08-17T09:28:18;100497.28;;;27.18;55.32
50702;BME280;36670;50.094;8.496;2023-08-17T09:31:00;100495.13;;;27.27;54.89
50702;BME280;36670;50.094;8.496;2023-08-17T09:33:29;100496.03;;;27.31;55.94
50702;BME280;36670;50.094;8.496;2023-08-17T09:35:55;100489.25;;;27.20;55.43
50702;BME280;36670;50.094;8.496;2023-08-17T09:38:21;100490.19;;;28.16;54.10
50702;BME280;36670;50.094;8.496;2023-08-17T09:40:47;100496.41;;;27.01;54.22
50702;BME280;36670;50.094;8.496;2023-08-17T09:43:16;100495.34;;;26.53;55.73
50702;BME280;36670;50.094;8.496;2023-08-17T09:45:45;100495.38;;;26.40;55.90
50702;BME280;36670;50.094;8.496;2023-08-17T09:48:15;100495.72;;;26.27;56.82
50702;BME280;36670;50.094;8.496;2023-08-17T09:50:42;100485.91;;;27.02;55.91
50702;BME280;36670;50.094;8.496;2023-08-17T09:53:12;100484.78;;;27.35;56.11
50702;BME280;36670;50.094;8.496;2023-08-17T09:55:39;100466.09;;;28.10;55.60
50702;BME280;36670;50.094;8.496;2023-08-17T09:58:06;100451.84;;;28.77;53.34
50702;BME280;36670;50.094;8.496;2023-08-17T10:00:33;100455.66;;;29.24;52.28
50702;BME280;36670;50.094;8.496;2023-08-17T10:03:02;100455.72;;;28.89;52.51
50702;BME280;36670;50.094;8.496;2023-08-17T10:05:31;100453.72;;;29.28;52.24
50702;BME280;36670;50.094;8.496;2023-08-17T10:08:00;100458.09;;;29.45;50.12
50702;BME280;36670;50.094;8.496;2023-08-17T10:10:29;100453.66;;;28.86;51.14
50702;BME280;36670;50.094;8.496;2023-08-17T10:13:04;100453.38;;;29.34;50.90
50702;BME280;36670;50.094;8.496;2023-08-17T10:15:34;100449.22;;;29.74;51.25
50702;BME280;36670;50.094;8.496;2023-08-17T10:18:13;100456.31;;;29.18;51.14
50702;BME280;36670;50.094;8.496;2023-08-17T10:20:42;100453.97;;;29.89;50.81
50702;BME280;36670;50.094;8.496;2023-08-17T10:23:17;100459.09;;;30.03;48.64
50702;BME280;36670;50.094;8.496;2023-08-17T10:25:47;100456.47;;;29.25;50.40
50702;BME280;36670;50.094;8.496;2023-08-17T10:28:13;100464.06;;;29.40;50.54
50702;BME280;36670;50.094;8.496;2023-08-17T10:30:39;100454.97;;;30.01;50.82
50702;BME280;36670;50.094;8.496;2023-08-17T10:33:05;100454.72;;;29.40;48.81
50702;BME280;36670;50.094;8.496;2023-08-17T10:35:32;100459.91;;;29.57;49.23
50702;BME280;36670;50.094;8.496;2023-08-17T10:37:58;100448.06;;;29.32;49.21
50702;BME280;36670;50.094;8.496;2023-08-17T10:40:27;100441.31;;;30.10;48.76
50702;BME280;36670;50.094;8.496;2023-08-17T10:42:56;100451.63;;;29.49;49.75
50702;BME280;36670;50.094;8.496;2023-08-17T10:45:29;100447.97;;;29.94;48.19
50702;BME280;36670;50.094;8.496;2023-08-17T10:48:26;100439.81;;;30.46;49.77
50702;BME280;36670;50.094;8.496;2023-08-17T10:51:02;100450.56;;;31.21;48.62
50702;BME280;36670;50.094;8.496;2023-08-17T10:53:34;100450.34;;;31.41;48.15
50702;BME280;36670;50.094;8.496;2023-08-17T10:55:59;100455.06;;;31.63;47.72
50702;BME280;36670;50.094;8.496;2023-08-17T10:58:24;100450.22;;;32.16;46.22
50702;BME280;36670;50.094;8.496;2023-08-17T11:00:54;100449.19;;;31.49;45.22
50702;BME280;36670;50.094;8.496;2023-08-17T11:03:20;100442.88;;;30.61;46.79
50702;BME280;36670;50.094;8.496;2023-08-17T11:05:54;100444.97;;;31.32;46.75
50702;BME280;36670;50.094;8.496;2023-08-17T11:08:34;100455.09;;;30.61;46.52
50702;BME280;36670;50.094;8.496;2023-08-17T11:11:10;100448.78;;;29.95;47.96
50702;BME280;36670;50.094;8.496;2023-08-17T11:13:37;100449.81;;;29.37;48.55
50702;BME280;36670;50.094;8.496;2023-08-17T11:16:04;100445.44;;;29.89;49.32
50702;BME280;36670;50.094;8.496;2023-08-17T11:18:34;100448.59;;;30.64;47.95
50702;BME280;36670;50.094;8.496;2023-08-17T11:21:01;100452.81;;;31.05;46.45
50702;BME280;36670;50.094;8.496;2023-08-17T11:23:33;100451.59;;;31.43;46.45
50702;BME280;36670;50.094;8.496;2023-08-17T11:25:59;100454.13;;;31.52;46.09
50702;BME280;36670;50.094;8.496;2023-08-17T11:28:25;100440.91;;;32.30;45.47
50702;BME280;36670;50.094;8.496;2023-08-17T11:31:08;100438.19;;;31.89;45.21
50702;BME280;36670;50.094;8.496;2023-08-17T11:33:35;100433.41;;;32.11;44.44
50702;BME280;36670;50.094;8.496;2023-08-17T11:36:03;100429.34;;;32.08;44.40
50702;BME280;36670;50.094;8.496;2023-08-17T11:38:41;100426.41;;;31.97;44.03
50702;BME280;36670;50.094;8.496;2023-08-17T11:41:07;100429.41;;;31.67;45.02
50702;BME280;36670;50.094;8.496;2023-08-17T11:43:34;100430.63;;;31.25;44.90
50702;BME280;36670;50.094;8.496;2023-08-17T11:46:01;100431.94;;;30.97;45.76
50702;BME280;36670;50.094;8.496;2023-08-17T11:48:30;100434.09;;;31.07;46.00
50702;BME280;36670;50.094;8.496;2023-08-17T11:50:55;100428.66;;;31.32;45.49
50702;BME280;36670;50.094;8.496;2023-08-17T11:53:21;100420.97;;;31.81;45.29
50702;BME280;36670;50.094;8.496;2023-08-17T11:55:46;100425.88;;;31.40;44.53
50702;BME280;36670;50.094;8.496;2023-08-17T11:58:12;100420.13;;;31.77;45.73
50702;BME280;36670;50.094;8.496;2023-08-17T12:00:41;100406.38;;;31.94;44.47
50702;BME280;36670;50.094;8.496;2023-08-17T12:03:07;100422.16;;;31.36;44.85
50702;BME280;36670;50.094;8.496;2023-08-17T12:05:32;100413.81;;;30.21;47.40
50702;BME280;36670;50.094;8.496;2023-08-17T12:08:01;100415.81;;;30.44;47.75
50702;BME280;36670;50.094;8.496;2023-08-17T12:10:33;100415.03;;;31.56;46.04
50702;BME280;36670;50.094;8.496;2023-08-17T12:12:59;100413.53;;;31.70;45.76
50702;BME280;36670;50.094;8.496;2023-08-17T12:15:34;100414.34;;;31.70;47.11
50702;BME280;36670;50.094;8.496;2023-08-17T12:18:01;100417.38;;;32.55;46.03
50702;BME280;36670;50.094;8.496;2023-08-17T12:20:27;100420.34;;;32.76;44.95
50702;BME280;36670;50.094;8.496;2023-08-17T12:22:52;100426.22;;;32.28;43.11
50702;BME280;36670;50.094;8.496;2023-08-17T12:25:20;100431.63;;;32.40;44.38
50702;BME280;36670;50.094;8.496;2023-08-17T12:27:47;100422.16;;;32.32;43.51
50702;BME280;36670;50.094;8.496;2023-08-17T12:30:33;100418.25;;;32.66;43.63
50702;BME280;36670;50.094;8.496;2023-08-17T12:33:01;100425.38;;;31.72;43.88
50702;BME280;36670;50.094;8.496;2023-08-17T12:35:27;100425.91;;;31.85;44.68
50702;BME280;36670;50.094;8.496;2023-08-17T12:37:53;100421.19;;;32.10;43.49
50702;BME280;36670;50.094;8.496;2023-08-17T12:40:19;100426.09;;;32.10;43.03
50702;BME280;36670;50.094;8.496;2023-08-17T12:42:45;100422.09;;;32.18;43.77
50702;BME280;36670;50.094;8.496;2023-08-17T12:45:10;100423.72;;;32.96;42.82
50702;BME280;36670;50.094;8.496;2023-08-17T12:47:35;100422.53;;;33.19;41.49
50702;BME280;36670;50.094;8.496;2023-08-17T12:50:01;100425.00;;;33.17;40.97